Wetterdaten: Woche 22.06.09 - 28.06.09 (KW26)
Datum Zeit Temperatur Luftfeuchte Luftdruck Niederschlag Windrichtung Wind
22.06.2009 00:00 10,5 C 93 % 1019,1 hPa 0,6 l/m N 1,9 km/h (1 Bft)
22.06.2009 01:00 10,2 C 94 % 1018,9 hPa 0,8 l/m N 1,3 km/h (1 Bft)
22.06.2009 02:00 9,9 C 95 % 1018,4 hPa 1,8 l/m N 1,1 km/h (0 Bft)
22.06.2009 03:00 9,8 C 96 % 1017,9 hPa 0,6 l/m NW 2,8 km/h (1 Bft)
22.06.2009 04:00 9,6 C 95 % 1018,0 hPa 0,0 l/m W-NW 6,7 km/h (2 Bft)
22.06.2009 05:00 9,0 C 94 % 1018,4 hPa 1,2 l/m N-NW 13,1 km/h (3 Bft)
22.06.2009 06:00 9,1 C 96 % 1018,9 hPa 0,0 l/m N-NW 7,2 km/h (2 Bft)
22.06.2009 07:00 9,4 C 94 % 1019,3 hPa 0,0 l/m N 9,1 km/h (2 Bft)
22.06.2009 08:00 10,0 C 89 % 1019,8 hPa 0,0 l/m N 15,3 km/h (3 Bft)
22.06.2009 09:00 11,6 C 81 % 1020,0 hPa 0,0 l/m N-NW 19,6 km/h (3 Bft)
22.06.2009 10:00 12,1 C 76 % 1020,1 hPa 0,0 l/m N-NO 18,9 km/h (3 Bft)
22.06.2009 11:00 11,9 C 76 % 1020,5 hPa 0,0 l/m N-NO 17,0 km/h (3 Bft)
22.06.2009 12:00 12,4 C 71 % 1020,8 hPa 0,0 l/m O-NO 20,2 km/h (4 Bft)
22.06.2009 13:00 13,5 C 68 % 1020,8 hPa 0,0 l/m N-NO 22,0 km/h (4 Bft)
22.06.2009 14:00 13,7 C 68 % 1020,8 hPa 0,0 l/m N-NW 23,7 km/h (4 Bft)
22.06.2009 15:00 13,1 C 72 % 1020,7 hPa 0,2 l/m N-NO 18,2 km/h (3 Bft)
22.06.2009 16:00 9,9 C 89 % 1021,0 hPa 4,6 l/m W-NW 9,1 km/h (2 Bft)
22.06.2009 17:00 10,3 C 92 % 1020,9 hPa 0,0 l/m W-NW 4,1 km/h (1 Bft)
22.06.2009 18:00 11,7 C 87 % 1020,9 hPa 0,0 l/m SW 4,3 km/h (1 Bft)
22.06.2009 19:00 11,7 C 90 % 1021,1 hPa 0,6 l/m SW 3,9 km/h (1 Bft)
22.06.2009 20:00 11,3 C 94 % 1021,4 hPa 0,0 l/m N 1,2 km/h (1 Bft)
22.06.2009 21:00 11,0 C 94 % 1021,5 hPa 0,0 l/m N-NW 4,4 km/h (1 Bft)
22.06.2009 22:00 10,3 C 91 % 1021,7 hPa 0,0 l/m N-NW 6,7 km/h (2 Bft)
22.06.2009 23:00 10,3 C 92 % 1021,7 hPa 0,0 l/m N-NW 10,5 km/h (2 Bft)
23.06.2009 00:00 10,4 C 92 % 1021,6 hPa 0,0 l/m N 11,3 km/h (2 Bft)
23.06.2009 01:00 10,6 C 93 % 1021,3 hPa 0,0 l/m N 8,3 km/h (2 Bft)
23.06.2009 02:00 10,6 C 94 % 1020,8 hPa 0,2 l/m N 10,5 km/h (2 Bft)
23.06.2009 03:00 10,4 C 95 % 1020,2 hPa 0,0 l/m N-NO 9,8 km/h (2 Bft)
23.06.2009 04:00 10,4 C 94 % 1020,0 hPa 0,0 l/m N-NW 8,9 km/h (2 Bft)
23.06.2009 05:00 10,5 C 94 % 1020,0 hPa 0,6 l/m N-NO 11,3 km/h (2 Bft)
23.06.2009 06:00 10,5 C 96 % 1020,2 hPa 0,6 l/m N 7,6 km/h (2 Bft)
23.06.2009 07:00 10,7 C 96 % 1020,3 hPa 1,8 l/m N-NO 8,4 km/h (2 Bft)
23.06.2009 08:00 10,8 C 93 % 1020,5 hPa 0,8 l/m N-NO 14,6 km/h (3 Bft)
23.06.2009 09:00 10,7 C 93 % 1020,3 hPa 1,0 l/m N-NW 19,6 km/h (3 Bft)
23.06.2009 10:00 10,7 C 93 % 1020,1 hPa 1,2 l/m N-NO 20,1 km/h (4 Bft)
23.06.2009 11:00 11,2 C 94 % 1020,2 hPa 0,8 l/m N 19,2 km/h (3 Bft)
23.06.2009 12:00 11,1 C 95 % 1020,0 hPa 1,4 l/m NO 17,8 km/h (3 Bft)
23.06.2009 13:00 11,5 C 94 % 1019,8 hPa 0,8 l/m N-NO 14,2 km/h (3 Bft)
23.06.2009 14:00 11,3 C 95 % 1019,6 hPa 0,6 l/m N 13,4 km/h (3 Bft)
23.06.2009 15:00 11,3 C 95 % 1019,5 hPa 1,4 l/m N-NW 15,6 km/h (3 Bft)
23.06.2009 16:00 11,0 C 95 % 1019,2 hPa 2,0 l/m NW 8,5 km/h (2 Bft)
23.06.2009 17:00 10,9 C 96 % 1019,1 hPa 2,0 l/m NW 5,7 km/h (1 Bft)
23.06.2009 18:00 10,8 C 97 % 1019,0 hPa 1,4 l/m N-NW 6,1 km/h (2 Bft)
23.06.2009 19:00 10,9 C 97 % 1018,9 hPa 1,0 l/m N 6,8 km/h (2 Bft)
23.06.2009 20:00 11,0 C 97 % 1018,9 hPa 0,6 l/m N 8,3 km/h (2 Bft)
23.06.2009 21:00 11,0 C 97 % 1019,1 hPa 1,0 l/m N 6,8 km/h (2 Bft)
23.06.2009 22:00 11,0 C 98 % 1019,2 hPa 1,0 l/m NW 5,1 km/h (1 Bft)
23.06.2009 23:00 11,0 C 98 % 1019,1 hPa 1,0 l/m NW 4,1 km/h (1 Bft)
24.06.2009 00:00 11,0 C 98 % 1018,8 hPa 0,2 l/m NW 4,5 km/h (1 Bft)
24.06.2009 01:00 11,1 C 98 % 1018,4 hPa 0,2 l/m NW 3,7 km/h (1 Bft)
24.06.2009 02:00 11,1 C 98 % 1017,9 hPa 0,6 l/m NW 2,5 km/h (1 Bft)
24.06.2009 03:00 11,1 C 98 % 1017,4 hPa 0,4 l/m NW 2,0 km/h (1 Bft)
24.06.2009 04:00 11,1 C 98 % 1017,0 hPa 0,6 l/m N 1,1 km/h (0 Bft)
24.06.2009 05:00 11,0 C 98 % 1016,5 hPa 0,2 l/m NW 2,7 km/h (1 Bft)
24.06.2009 06:00 11,1 C 98 % 1016,0 hPa 0,0 l/m N 1,7 km/h (1 Bft)
24.06.2009 07:00 11,3 C 98 % 1015,9 hPa 0,0 l/m N 1,5 km/h (1 Bft)
24.06.2009 08:00 11,8 C 97 % 1015,8 hPa 0,0 l/m NW 1,5 km/h (1 Bft)
24.06.2009 09:00 12,5 C 92 % 1015,5 hPa 0,0 l/m N 4,4 km/h (1 Bft)
24.06.2009 10:00 13,5 C 88 % 1015,4 hPa 0,0 l/m N-NO 6,0 km/h (2 Bft)
24.06.2009 11:00 13,6 C 88 % 1015,2 hPa 0,0 l/m N-NO 4,3 km/h (1 Bft)
24.06.2009 12:00 13,8 C 88 % 1014,9 hPa 0,0 l/m N 2,4 km/h (1 Bft)
24.06.2009 13:00 14,2 C 86 % 1014,9 hPa 0,0 l/m N-NO 3,1 km/h (1 Bft)
24.06.2009 14:00 14,5 C 87 % 1014,6 hPa 0,0 l/m S-SO 4,0 km/h (1 Bft)
24.06.2009 15:00 14,6 C 89 % 1014,6 hPa 0,0 l/m S-SO 5,2 km/h (1 Bft)
24.06.2009 16:00 14,0 C 93 % 1014,4 hPa 0,0 l/m S 5,1 km/h (1 Bft)
24.06.2009 17:00 14,0 C 94 % 1014,3 hPa 0,0 l/m N 2,3 km/h (1 Bft)
24.06.2009 18:00 14,0 C 96 % 1014,4 hPa 0,0 l/m S 3,5 km/h (1 Bft)
24.06.2009 19:00 13,9 C 96 % 1014,3 hPa 0,2 l/m N 1,2 km/h (1 Bft)
24.06.2009 20:00 13,9 C 96 % 1014,1 hPa 0,0 l/m N 0,1 km/h (0 Bft)
24.06.2009 21:00 13,8 C 97 % 1014,0 hPa 0,0 l/m N 0,7 km/h (0 Bft)
24.06.2009 22:00 13,8 C 97 % 1014,0 hPa 0,0 l/m N 0,7 km/h (0 Bft)
24.06.2009 23:00 13,8 C 97 % 1013,5 hPa 0,0 l/m N 1,5 km/h (1 Bft)
25.06.2009 00:00 13,7 C 98 % 1013,1 hPa 0,0 l/m S 3,2 km/h (1 Bft)
25.06.2009 01:00 13,7 C 98 % 1012,5 hPa 0,0 l/m S 3,1 km/h (1 Bft)
25.06.2009 02:00 13,8 C 98 % 1012,3 hPa 0,0 l/m O-NO 5,0 km/h (1 Bft)
25.06.2009 03:00 13,9 C 97 % 1012,1 hPa 0,0 l/m NO 5,3 km/h (1 Bft)
25.06.2009 04:00 13,9 C 97 % 1011,7 hPa 0,0 l/m NO 3,3 km/h (1 Bft)
25.06.2009 05:00 13,9 C 97 % 1011,3 hPa 0,0 l/m NO 3,5 km/h (1 Bft)
25.06.2009 06:00 14,0 C 98 % 1011,1 hPa 0,0 l/m N 0,4 km/h (0 Bft)
25.06.2009 07:00 14,3 C 97 % 1011,0 hPa 0,0 l/m NO 1,3 km/h (1 Bft)
25.06.2009 08:00 15,3 C 95 % 1010,7 hPa 0,0 l/m NO 7,0 km/h (2 Bft)
25.06.2009 09:00 16,6 C 90 % 1010,6 hPa 0,0 l/m O-NO 10,5 km/h (2 Bft)
25.06.2009 10:00 17,3 C 86 % 1010,4 hPa 0,0 l/m O-NO 13,2 km/h (3 Bft)
25.06.2009 11:00 17,8 C 83 % 1010,3 hPa 0,0 l/m NO 9,1 km/h (2 Bft)
25.06.2009 12:00 19,0 C 79 % 1010,1 hPa 0,0 l/m NO 7,9 km/h (2 Bft)
25.06.2009 13:00 20,6 C 70 % 1009,6 hPa 0,0 l/m O-SO 8,3 km/h (2 Bft)
25.06.2009 14:00 21,7 C 65 % 1009,1 hPa 0,0 l/m O 8,1 km/h (2 Bft)
25.06.2009 15:00 22,6 C 60 % 1008,4 hPa 0,0 l/m NO 8,0 km/h (2 Bft)
25.06.2009 16:00 22,6 C 61 % 1008,0 hPa 0,0 l/m N-NO 11,8 km/h (2 Bft)
25.06.2009 17:00 20,8 C 67 % 1007,8 hPa 0,0 l/m NO 16,6 km/h (3 Bft)
25.06.2009 18:00 21,0 C 68 % 1007,6 hPa 0,0 l/m N-NO 11,3 km/h (2 Bft)
25.06.2009 19:00 20,4 C 74 % 1007,7 hPa 0,0 l/m O 9,8 km/h (2 Bft)
25.06.2009 20:00 19,7 C 78 % 1007,9 hPa 0,0 l/m O 9,3 km/h (2 Bft)
25.06.2009 21:00 17,7 C 86 % 1007,9 hPa 0,0 l/m NO 4,0 km/h (1 Bft)
25.06.2009 22:00 15,8 C 93 % 1008,2 hPa 0,0 l/m N 1,5 km/h (1 Bft)
25.06.2009 23:00 14,8 C 95 % 1008,0 hPa 0,0 l/m N 1,3 km/h (1 Bft)
26.06.2009 00:00 14,2 C 96 % 1008,0 hPa 0,0 l/m N 1,3 km/h (1 Bft)
26.06.2009 01:00 14,2 C 97 % 1008,2 hPa 0,0 l/m N-NW 5,1 km/h (1 Bft)
26.06.2009 02:00 14,7 C 97 % 1008,3 hPa 0,0 l/m N 4,5 km/h (1 Bft)
26.06.2009 03:00 14,8 C 97 % 1008,0 hPa 0,0 l/m N 0,4 km/h (0 Bft)
26.06.2009 04:00 14,9 C 98 % 1007,8 hPa 0,0 l/m N 2,5 km/h (1 Bft)
26.06.2009 05:00 14,5 C 97 % 1008,3 hPa 0,0 l/m N 1,9 km/h (1 Bft)
26.06.2009 06:00 14,2 C 97 % 1008,4 hPa 0,0 l/m N 0,4 km/h (0 Bft)
26.06.2009 07:00 14,8 C 97 % 1008,5 hPa 0,0 l/m N 1,6 km/h (1 Bft)
26.06.2009 08:00 16,2 C 94 % 1008,8 hPa 0,0 l/m O-NO 2,8 km/h (1 Bft)
26.06.2009 09:00 17,9 C 87 % 1008,8 hPa 0,0 l/m O 4,0 km/h (1 Bft)
26.06.2009 10:00 19,3 C 78 % 1008,6 hPa 0,0 l/m N 5,5 km/h (1 Bft)
26.06.2009 11:00 20,9 C 68 % 1008,5 hPa 0,0 l/m N-NO 6,4 km/h (2 Bft)
26.06.2009 12:00 22,3 C 62 % 1008,2 hPa 0,0 l/m N-NO 9,3 km/h (2 Bft)
26.06.2009 13:00 22,9 C 61 % 1007,9 hPa 0,0 l/m O-NO 14,4 km/h (3 Bft)
26.06.2009 14:00 23,2 C 60 % 1007,5 hPa 0,0 l/m NO 15,0 km/h (3 Bft)
26.06.2009 15:00 22,6 C 63 % 1007,2 hPa 5,2 l/m N-NO 13,2 km/h (3 Bft)
26.06.2009 16:00 18,6 C 91 % 1007,5 hPa 6,0 l/m W-NW 8,4 km/h (2 Bft)
26.06.2009 17:00 19,5 C 86 % 1007,6 hPa 2,2 l/m SW 10,7 km/h (2 Bft)
26.06.2009 18:00 17,2 C 92 % 1007,9 hPa 12,8 l/m W 8,3 km/h (2 Bft)
26.06.2009 19:00 16,9 C 96 % 1007,7 hPa 0,0 l/m W 2,1 km/h (1 Bft)
26.06.2009 20:00 16,8 C 96 % 1008,3 hPa 0,0 l/m N 1,1 km/h (0 Bft)
26.06.2009 21:00 16,6 C 97 % 1008,8 hPa 0,0 l/m W 1,1 km/h (0 Bft)
26.06.2009 22:00 16,2 C 97 % 1009,3 hPa 0,0 l/m W 1,9 km/h (1 Bft)
26.06.2009 23:00 16,1 C 98 % 1009,3 hPa 0,0 l/m W 2,3 km/h (1 Bft)
27.06.2009 00:00 16,2 C 98 % 1009,3 hPa 0,0 l/m W 1,5 km/h (1 Bft)
27.06.2009 01:00 15,8 C 98 % 1009,4 hPa 0,0 l/m W 1,7 km/h (1 Bft)
27.06.2009 02:00 15,1 C 98 % 1009,5 hPa 0,0 l/m N 1,2 km/h (1 Bft)
27.06.2009 03:00 14,7 C 98 % 1009,7 hPa 0,0 l/m N 0,4 km/h (0 Bft)
27.06.2009 04:00 14,2 C 98 % 1009,7 hPa 0,0 l/m N 0,4 km/h (0 Bft)
27.06.2009 05:00 14,2 C 99 % 1009,9 hPa 0,0 l/m N 2,1 km/h (1 Bft)
27.06.2009 06:00 14,6 C 98 % 1010,1 hPa 0,0 l/m S 5,3 km/h (1 Bft)
27.06.2009 07:00 15,1 C 98 % 1010,3 hPa 0,0 l/m S-SW 3,3 km/h (1 Bft)
27.06.2009 08:00 15,1 C 97 % 1010,7 hPa 15,2 l/m NW 2,9 km/h (1 Bft)
27.06.2009 09:00 15,2 C 98 % 1010,9 hPa 2,4 l/m NW 1,6 km/h (1 Bft)
27.06.2009 10:00 15,4 C 98 % 1011,3 hPa 2,2 l/m NW 4,7 km/h (1 Bft)
27.06.2009 11:00 16,1 C 96 % 1011,5 hPa 0,0 l/m W 8,2 km/h (2 Bft)
27.06.2009 12:00 17,1 C 92 % 1011,6 hPa 0,0 l/m W-NW 11,8 km/h (2 Bft)
27.06.2009 13:00 17,6 C 88 % 1011,8 hPa 0,0 l/m W-NW 9,9 km/h (2 Bft)
27.06.2009 14:00 18,7 C 83 % 1011,6 hPa 0,0 l/m W-NW 6,9 km/h (2 Bft)
27.06.2009 15:00 19,0 C 83 % 1011,6 hPa 0,4 l/m SW 6,3 km/h (2 Bft)
27.06.2009 16:00 18,0 C 92 % 1011,6 hPa 1,2 l/m SW 5,2 km/h (1 Bft)
27.06.2009 17:00 18,8 C 90 % 1011,6 hPa 0,0 l/m W-SW 10,8 km/h (2 Bft)
27.06.2009 18:00 18,2 C 90 % 1011,6 hPa 0,6 l/m W 13,8 km/h (3 Bft)
27.06.2009 19:00 17,3 C 94 % 1011,8 hPa 0,6 l/m W-SW 3,9 km/h (1 Bft)
27.06.2009 20:00 17,0 C 95 % 1012,1 hPa 0,0 l/m SW 3,9 km/h (1 Bft)
27.06.2009 21:00 16,5 C 96 % 1012,6 hPa 2,2 l/m SW 4,3 km/h (1 Bft)
27.06.2009 22:00 16,3 C 97 % 1013,2 hPa 1,6 l/m SW 4,1 km/h (1 Bft)
27.06.2009 23:00 15,9 C 98 % 1013,4 hPa 0,0 l/m SW 5,1 km/h (1 Bft)
28.06.2009 00:00 15,8 C 98 % 1013,2 hPa 0,0 l/m S-SW 2,4 km/h (1 Bft)
28.06.2009 01:00 15,7 C 98 % 1013,1 hPa 0,0 l/m SW 2,8 km/h (1 Bft)
28.06.2009 02:00 15,4 C 98 % 1013,3 hPa 0,0 l/m S-SW 3,6 km/h (1 Bft)
28.06.2009 03:00 15,4 C 99 % 1013,1 hPa 0,0 l/m SW 3,3 km/h (1 Bft)
28.06.2009 04:00 15,3 C 99 % 1012,8 hPa 0,0 l/m N 0,9 km/h (0 Bft)
28.06.2009 05:00 15,1 C 99 % 1012,9 hPa 0,0 l/m N 0,1 km/h (0 Bft)
28.06.2009 06:00 15,4 C 99 % 1013,1 hPa 0,0 l/m N 0,0 km/h (0 Bft)
28.06.2009 07:00 15,8 C 99 % 1013,0 hPa 0,0 l/m W 0,7 km/h (0 Bft)
28.06.2009 08:00 16,4 C 96 % 1013,1 hPa 0,0 l/m O-NO 4,4 km/h (1 Bft)
28.06.2009 09:00 18,0 C 90 % 1013,1 hPa 0,0 l/m SO 5,2 km/h (1 Bft)
28.06.2009 10:00 19,1 C 82 % 1013,1 hPa 0,0 l/m SO 5,1 km/h (1 Bft)
28.06.2009 11:00 19,4 C 82 % 1013,1 hPa 0,0 l/m W-SW 5,6 km/h (1 Bft)
28.06.2009 12:00 20,6 C 76 % 1012,9 hPa 0,0 l/m O 7,1 km/h (2 Bft)
28.06.2009 13:00 22,1 C 69 % 1012,6 hPa 0,0 l/m O-SO 8,2 km/h (2 Bft)
28.06.2009 14:00 23,5 C 60 % 1012,3 hPa 0,0 l/m NO 10,5 km/h (2 Bft)
28.06.2009 15:00 23,8 C 63 % 1012,3 hPa 0,0 l/m NO 14,6 km/h (3 Bft)
28.06.2009 16:00 23,7 C 63 % 1012,2 hPa 0,0 l/m NO 12,5 km/h (3 Bft)
28.06.2009 17:00 24,2 C 60 % 1012,1 hPa 0,0 l/m O-NO 14,6 km/h (3 Bft)
28.06.2009 18:00 23,6 C 62 % 1012,1 hPa 0,0 l/m O-NO 14,2 km/h (3 Bft)
28.06.2009 19:00 22,9 C 63 % 1012,2 hPa 0,0 l/m O-NO 11,3 km/h (2 Bft)
28.06.2009 20:00 21,5 C 71 % 1012,5 hPa 0,0 l/m N-NO 5,9 km/h (2 Bft)
28.06.2009 21:00 20,1 C 81 % 1012,9 hPa 0,0 l/m O 4,1 km/h (1 Bft)
28.06.2009 22:00 18,3 C 89 % 1013,5 hPa 0,0 l/m N 1,3 km/h (1 Bft)
28.06.2009 23:00 17,6 C 93 % 1013,4 hPa 0,0 l/m N 2,1 km/h (1 Bft)
Min-Datum _ 22.06.09 28.06.09 26.06.09 - - 22.06.09
_ Min-Zeit 05:35 14:45 15:30 - - 00:05
Minimum _ 8,7 C 56 % 1007,0 hPa - - 0,0 km/h (0 Bft)
Max-Datum _ 28.06.09 27.06.09 22.06.09 27.06.09 - 26.06.09
_ Max-Zeit 17:40 07:05 22:10 08:25 - 16:00
Maximum _ 24,6 C 100 % 1021,8 hPa 15,2 l/m - 33,8 km/h
W-NW (5 Bft)
Durchschnitt _ 15,0 C 89 % 1013,9 hPa #86,6 l/m N 6,6 km/h (2 Bft)